sensor_id;sensor_type;location;lat;lon;timestamp;temperature;humidity
15099;DHT22;33900;53.640;9.942;2023-04-01T00:01:12;13.60;93.70
15099;DHT22;33900;53.640;9.942;2023-04-01T00:03:42;13.50;93.70
15099;DHT22;33900;53.640;9.942;2023-04-01T00:06:09;13.50;93.70
15099;DHT22;33900;53.640;9.942;2023-04-01T00:08:34;13.50;93.70
15099;DHT22;33900;53.640;9.942;2023-04-01T00:11:00;13.50;93.70
15099;DHT22;33900;53.640;9.942;2023-04-01T00:13:26;13.50;93.70
15099;DHT22;33900;53.640;9.942;2023-04-01T00:15:52;13.50;93.70
15099;DHT22;33900;53.640;9.942;2023-04-01T00:18:18;13.40;93.70
15099;DHT22;33900;53.640;9.942;2023-04-01T00:20:48;13.40;93.80
15099;DHT22;33900;53.640;9.942;2023-04-01T00:23:14;13.40;93.80
15099;DHT22;33900;53.640;9.942;2023-04-01T00:25:40;13.40;93.80
15099;DHT22;33900;53.640;9.942;2023-04-01T00:28:06;13.30;93.80
15099;DHT22;33900;53.640;9.942;2023-04-01T00:30:31;13.30;93.90
15099;DHT22;33900;53.640;9.942;2023-04-01T00:32:57;13.30;93.90
15099;DHT22;33900;53.640;9.942;2023-04-01T00:35:23;13.30;93.90
15099;DHT22;33900;53.640;9.942;2023-04-01T00:37:49;13.30;93.90
15099;DHT22;33900;53.640;9.942;2023-04-01T00:40:26;13.30;93.90
15099;DHT22;33900;53.640;9.942;2023-04-01T00:42:54;13.30;93.90
15099;DHT22;33900;53.640;9.942;2023-04-01T00:45:38;13.30;93.80
15099;DHT22;33900;53.640;9.942;2023-04-01T00:48:07;13.30;93.90
15099;DHT22;33900;53.640;9.942;2023-04-01T00:50:34;13.30;93.80
15099;DHT22;33900;53.640;9.942;2023-04-01T00:53:00;13.30;93.80
15099;DHT22;33900;53.640;9.942;2023-04-01T00:55:26;13.30;93.80
15099;DHT22;33900;53.640;9.942;2023-04-01T00:57:53;13.30;93.80
15099;DHT22;33900;53.640;9.942;2023-04-01T01:00:21;13.30;93.80
15099;DHT22;33900;53.640;9.942;2023-04-01T01:02:47;13.30;93.90
15099;DHT22;33900;53.640;9.942;2023-04-01T01:05:13;13.30;93.90
15099;DHT22;33900;53.640;9.942;2023-04-01T01:07:59;13.30;93.90
15099;DHT22;33900;53.640;9.942;2023-04-01T01:10:29;13.30;93.90
15099;DHT22;33900;53.640;9.942;2023-04-01T01:20:34;13.20;93.90
15099;DHT22;33900;53.640;9.942;2023-04-01T01:28:44;13.20;93.90
15099;DHT22;33900;53.640;9.942;2023-04-01T01:31:16;13.20;93.90
15099;DHT22;33900;53.640;9.942;2023-04-01T01:36:31;13.10;93.90
15099;DHT22;33900;53.640;9.942;2023-04-01T01:39:02;13.10;93.90
15099;DHT22;33900;53.640;9.942;2023-04-01T01:41:28;13.20;93.90
15099;DHT22;33900;53.640;9.942;2023-04-01T01:43:55;13.20;93.90
15099;DHT22;33900;53.640;9.942;2023-04-01T01:46:22;13.10;93.90
15099;DHT22;33900;53.640;9.942;2023-04-01T01:48:49;13.20;93.90
15099;DHT22;33900;53.640;9.942;2023-04-01T01:51:16;13.20;93.90
15099;DHT22;33900;53.640;9.942;2023-04-01T01:53:43;13.10;93.90
15099;DHT22;33900;53.640;9.942;2023-04-01T01:56:10;13.10;93.90
15099;DHT22;33900;53.640;9.942;2023-04-01T01:58:47;13.20;93.90
15099;DHT22;33900;53.640;9.942;2023-04-01T02:01:21;13.10;93.90
15099;DHT22;33900;53.640;9.942;2023-04-01T02:03:52;13.10;93.90
15099;DHT22;33900;53.640;9.942;2023-04-01T02:06:23;13.10;94.00
15099;DHT22;33900;53.640;9.942;2023-04-01T02:09:05;13.10;94.00
15099;DHT22;33900;53.640;9.942;2023-04-01T02:11:35;13.10;94.00
15099;DHT22;33900;53.640;9.942;2023-04-01T02:14:05;13.10;94.30
15099;DHT22;33900;53.640;9.942;2023-04-01T02:16:34;13.10;94.00
15099;DHT22;33900;53.640;9.942;2023-04-01T02:19:02;13.10;94.00
15099;DHT22;33900;53.640;9.942;2023-04-01T02:21:32;13.00;94.00
15099;DHT22;33900;53.640;9.942;2023-04-01T02:23:58;13.00;94.00
15099;DHT22;33900;53.640;9.942;2023-04-01T02:26:26;13.00;94.00
15099;DHT22;33900;53.640;9.942;2023-04-01T02:28:55;13.10;94.10
15099;DHT22;33900;53.640;9.942;2023-04-01T02:31:22;13.00;94.00
15099;DHT22;33900;53.640;9.942;2023-04-01T02:33:48;13.10;94.10
15099;DHT22;33900;53.640;9.942;2023-04-01T02:36:15;13.10;94.10
15099;DHT22;33900;53.640;9.942;2023-04-01T02:38:42;13.00;94.10
15099;DHT22;33900;53.640;9.942;2023-04-01T02:41:07;13.00;94.10
15099;DHT22;33900;53.640;9.942;2023-04-01T02:43:33;13.00;94.10
15099;DHT22;33900;53.640;9.942;2023-04-01T02:45:59;13.00;94.10
15099;DHT22;33900;53.640;9.942;2023-04-01T02:48:25;13.10;94.10
15099;DHT22;33900;53.640;9.942;2023-04-01T02:50:50;13.10;94.10
15099;DHT22;33900;53.640;9.942;2023-04-01T02:53:28;13.00;94.00
15099;DHT22;33900;53.640;9.942;2023-04-01T02:55:54;13.00;94.10
15099;DHT22;33900;53.640;9.942;2023-04-01T02:58:19;13.10;94.10
15099;DHT22;33900;53.640;9.942;2023-04-01T03:00:45;13.10;94.00
15099;DHT22;33900;53.640;9.942;2023-04-01T03:03:12;13.10;94.00
15099;DHT22;33900;53.640;9.942;2023-04-01T03:05:39;13.10;94.00
15099;DHT22;33900;53.640;9.942;2023-04-01T03:08:04;13.10;94.00
15099;DHT22;33900;53.640;9.942;2023-04-01T03:10:30;13.10;93.90
15099;DHT22;33900;53.640;9.942;2023-04-01T03:12:56;13.10;94.00
15099;DHT22;33900;53.640;9.942;2023-04-01T03:15:21;13.10;94.00
15099;DHT22;33900;53.640;9.942;2023-04-01T03:17:47;13.00;94.00
15099;DHT22;33900;53.640;9.942;2023-04-01T03:20:13;13.10;94.00
15099;DHT22;33900;53.640;9.942;2023-04-01T03:22:39;13.10;94.00
15099;DHT22;33900;53.640;9.942;2023-04-01T03:25:05;13.10;94.00
15099;DHT22;33900;53.640;9.942;2023-04-01T03:27:31;13.10;94.00
15099;DHT22;33900;53.640;9.942;2023-04-01T03:29:57;13.10;94.00
15099;DHT22;33900;53.640;9.942;2023-04-01T03:32:23;13.10;93.90
15099;DHT22;33900;53.640;9.942;2023-04-01T03:34:48;13.10;93.90
15099;DHT22;33900;53.640;9.942;2023-04-01T03:37:14;13.10;93.80
15099;DHT22;33900;53.640;9.942;2023-04-01T03:39:40;13.10;93.80
15099;DHT22;33900;53.640;9.942;2023-04-01T03:42:05;13.10;93.70
15099;DHT22;33900;53.640;9.942;2023-04-01T03:44:32;13.10;93.70
15099;DHT22;33900;53.640;9.942;2023-04-01T03:46:57;13.10;93.70
15099;DHT22;33900;53.640;9.942;2023-04-01T03:49:23;13.10;93.80
15099;DHT22;33900;53.640;9.942;2023-04-01T03:51:49;13.10;93.80
15099;DHT22;33900;53.640;9.942;2023-04-01T03:54:14;13.10;93.80
15099;DHT22;33900;53.640;9.942;2023-04-01T03:56:41;13.20;93.70
15099;DHT22;33900;53.640;9.942;2023-04-01T03:59:06;13.20;93.70
15099;DHT22;33900;53.640;9.942;2023-04-01T04:01:32;13.20;93.70
15099;DHT22;33900;53.640;9.942;2023-04-01T04:03:58;13.10;93.70
15099;DHT22;33900;53.640;9.942;2023-04-01T04:06:24;13.10;93.70
15099;DHT22;33900;53.640;9.942;2023-04-01T04:08:51;13.20;93.70
15099;DHT22;33900;53.640;9.942;2023-04-01T04:11:18;13.10;93.60
15099;DHT22;33900;53.640;9.942;2023-04-01T04:13:44;13.10;93.60
15099;DHT22;33900;53.640;9.942;2023-04-01T04:16:10;13.20;93.60
15099;DHT22;33900;53.640;9.942;2023-04-01T04:18:39;13.10;93.60
15099;DHT22;33900;53.640;9.942;2023-04-01T04:21:05;13.10;93.60
15099;DHT22;33900;53.640;9.942;2023-04-01T04:23:31;13.10;93.60
15099;DHT22;33900;53.640;9.942;2023-04-01T04:26:03;13.10;93.60
15099;DHT22;33900;53.640;9.942;2023-04-01T04:28:30;13.10;93.60
15099;DHT22;33900;53.640;9.942;2023-04-01T04:30:58;13.10;93.60
15099;DHT22;33900;53.640;9.942;2023-04-01T04:33:23;13.20;93.60
15099;DHT22;33900;53.640;9.942;2023-04-01T04:35:50;13.10;93.60
15099;DHT22;33900;53.640;9.942;2023-04-01T04:38:16;13.10;93.60
15099;DHT22;33900;53.640;9.942;2023-04-01T04:40:42;13.10;93.60
15099;DHT22;33900;53.640;9.942;2023-04-01T04:43:10;13.10;93.60
15099;DHT22;33900;53.640;9.942;2023-04-01T04:45:36;13.10;93.60
15099;DHT22;33900;53.640;9.942;2023-04-01T04:48:02;13.10;93.60
15099;DHT22;33900;53.640;9.942;2023-04-01T04:50:29;13.10;93.60
15099;DHT22;33900;53.640;9.942;2023-04-01T04:52:55;13.00;93.60
15099;DHT22;33900;53.640;9.942;2023-04-01T04:55:20;13.00;93.70
15099;DHT22;33900;53.640;9.942;2023-04-01T04:57:52;13.00;93.70
15099;DHT22;33900;53.640;9.942;2023-04-01T05:00:17;13.00;93.70
15099;DHT22;33900;53.640;9.942;2023-04-01T05:02:56;13.00;93.70
15099;DHT22;33900;53.640;9.942;2023-04-01T05:05:22;12.90;93.70
15099;DHT22;33900;53.640;9.942;2023-04-01T05:07:48;12.90;93.70
15099;DHT22;33900;53.640;9.942;2023-04-01T05:10:13;12.90;93.70
15099;DHT22;33900;53.640;9.942;2023-04-01T05:12:39;12.80;93.70
15099;DHT22;33900;53.640;9.942;2023-04-01T05:15:07;12.80;93.70
15099;DHT22;33900;53.640;9.942;2023-04-01T05:17:33;12.80;93.70
15099;DHT22;33900;53.640;9.942;2023-04-01T05:19:59;12.70;93.70
15099;DHT22;33900;53.640;9.942;2023-04-01T05:22:26;12.70;93.70
15099;DHT22;33900;53.640;9.942;2023-04-01T05:24:51;12.60;93.70
15099;DHT22;33900;53.640;9.942;2023-04-01T05:27:17;12.60;93.70
15099;DHT22;33900;53.640;9.942;2023-04-01T05:29:43;12.50;93.70
15099;DHT22;33900;53.640;9.942;2023-04-01T05:32:25;12.50;93.70
15099;DHT22;33900;53.640;9.942;2023-04-01T05:34:52;12.50;93.70
15099;DHT22;33900;53.640;9.942;2023-04-01T05:37:17;12.50;93.80
15099;DHT22;33900;53.640;9.942;2023-04-01T05:39:43;12.40;93.70
15099;DHT22;33900;53.640;9.942;2023-04-01T05:42:09;12.40;93.70
15099;DHT22;33900;53.640;9.942;2023-04-01T05:44:35;12.40;93.70
15099;DHT22;33900;53.640;9.942;2023-04-01T05:47:23;12.30;93.70
15099;DHT22;33900;53.640;9.942;2023-04-01T05:49:49;12.30;93.70
15099;DHT22;33900;53.640;9.942;2023-04-01T05:52:15;12.30;93.70
15099;DHT22;33900;53.640;9.942;2023-04-01T05:54:41;12.30;93.70
15099;DHT22;33900;53.640;9.942;2023-04-01T05:57:07;12.30;93.70
15099;DHT22;33900;53.640;9.942;2023-04-01T05:59:33;12.30;93.70
15099;DHT22;33900;53.640;9.942;2023-04-01T06:02:00;12.20;93.60
15099;DHT22;33900;53.640;9.942;2023-04-01T06:04:26;12.20;93.60
15099;DHT22;33900;53.640;9.942;2023-04-01T06:06:53;12.10;93.60
15099;DHT22;33900;53.640;9.942;2023-04-01T06:09:22;12.10;93.60
15099;DHT22;33900;53.640;9.942;2023-04-01T06:24:56;11.90;93.60
15099;DHT22;33900;53.640;9.942;2023-04-01T06:30:30;11.80;93.60
15099;DHT22;33900;53.640;9.942;2023-04-01T06:33:01;11.80;93.60
15099;DHT22;33900;53.640;9.942;2023-04-01T06:38:25;11.70;93.60
15099;DHT22;33900;53.640;9.942;2023-04-01T06:46:25;11.60;93.60
15099;DHT22;33900;53.640;9.942;2023-04-01T06:49:21;11.60;93.60
15099;DHT22;33900;53.640;9.942;2023-04-01T06:55:37;11.50;93.70
15099;DHT22;33900;53.640;9.942;2023-04-01T06:58:21;11.50;93.70
15099;DHT22;33900;53.640;9.942;2023-04-01T07:00:52;11.40;93.60
15099;DHT22;33900;53.640;9.942;2023-04-01T07:03:23;11.40;93.60
15099;DHT22;33900;53.640;9.942;2023-04-01T07:05:52;11.40;93.70
15099;DHT22;33900;53.640;9.942;2023-04-01T07:08:23;11.40;93.70
15099;DHT22;33900;53.640;9.942;2023-04-01T07:10:55;11.40;93.70
15099;DHT22;33900;53.640;9.942;2023-04-01T07:13:55;11.40;93.70
15099;DHT22;33900;53.640;9.942;2023-04-01T07:16:37;11.30;93.70
15099;DHT22;33900;53.640;9.942;2023-04-01T07:22:01;11.30;93.70
15099;DHT22;33900;53.640;9.942;2023-04-01T07:24:44;11.20;93.70
15099;DHT22;33900;53.640;9.942;2023-04-01T07:27:11;11.20;93.70
15099;DHT22;33900;53.640;9.942;2023-04-01T07:29:38;11.20;93.70
15099;DHT22;33900;53.640;9.942;2023-04-01T07:32:22;11.20;93.70
15099;DHT22;33900;53.640;9.942;2023-04-01T07:37:31;11.20;93.70
15099;DHT22;33900;53.640;9.942;2023-04-01T07:40:20;11.20;93.70
15099;DHT22;33900;53.640;9.942;2023-04-01T07:45:36;11.10;93.60
15099;DHT22;33900;53.640;9.942;2023-04-01T07:56:05;11.10;93.70
15099;DHT22;33900;53.640;9.942;2023-04-01T08:01:29;11.10;93.70
15099;DHT22;33900;53.640;9.942;2023-04-01T08:09:14;11.00;93.60
15099;DHT22;33900;53.640;9.942;2023-04-01T08:12:18;11.00;93.60
15099;DHT22;33900;53.640;9.942;2023-04-01T08:15:47;11.00;93.60
15099;DHT22;33900;53.640;9.942;2023-04-01T08:18:43;11.00;93.90
15099;DHT22;33900;53.640;9.942;2023-04-01T08:23:43;10.90;93.60
15099;DHT22;33900;53.640;9.942;2023-04-01T08:29:44;10.90;93.60
15099;DHT22;33900;53.640;9.942;2023-04-01T08:31:58;10.90;93.70
15099;DHT22;33900;53.640;9.942;2023-04-01T08:34:28;10.90;93.60
15099;DHT22;33900;53.640;9.942;2023-04-01T08:37:08;10.90;94.00
15099;DHT22;33900;53.640;9.942;2023-04-01T08:39:40;10.90;93.60
15099;DHT22;33900;53.640;9.942;2023-04-01T08:42:15;10.90;93.60
15099;DHT22;33900;53.640;9.942;2023-04-01T08:45:02;10.90;93.60
15099;DHT22;33900;53.640;9.942;2023-04-01T09:01:19;10.90;93.60
15099;DHT22;33900;53.640;9.942;2023-04-01T09:17:26;10.90;93.60
15099;DHT22;33900;53.640;9.942;2023-04-01T09:28:19;10.90;93.60
15099;DHT22;33900;53.640;9.942;2023-04-01T09:41:53;11.00;93.60
15099;DHT22;33900;53.640;9.942;2023-04-01T09:44:34;10.90;93.50
15099;DHT22;33900;53.640;9.942;2023-04-01T09:52:37;11.00;93.60
15099;DHT22;33900;53.640;9.942;2023-04-01T10:04:23;10.90;93.50
15099;DHT22;33900;53.640;9.942;2023-04-01T10:17:28;10.90;93.40
15099;DHT22;33900;53.640;9.942;2023-04-01T10:25:36;10.90;93.50
15099;DHT22;33900;53.640;9.942;2023-04-01T10:31:01;10.90;93.50
15099;DHT22;33900;53.640;9.942;2023-04-01T10:33:56;10.90;93.50
15099;DHT22;33900;53.640;9.942;2023-04-01T10:50:47;11.00;93.40
15099;DHT22;33900;53.640;9.942;2023-04-01T11:02:44;11.10;93.40
15099;DHT22;33900;53.640;9.942;2023-04-01T11:05:45;11.00;93.20
15099;DHT22;33900;53.640;9.942;2023-04-01T11:21:46;11.00;93.40
15099;DHT22;33900;53.640;9.942;2023-04-01T11:27:33;11.10;93.40
15099;DHT22;33900;53.640;9.942;2023-04-01T11:30:14;11.10;93.40
15099;DHT22;33900;53.640;9.942;2023-04-01T11:41:00;11.10;93.20
15099;DHT22;33900;53.640;9.942;2023-04-01T11:55:06;11.00;93.20
15099;DHT22;33900;53.640;9.942;2023-04-01T12:05:23;10.90;93.10
15099;DHT22;33900;53.640;9.942;2023-04-01T12:10:33;10.90;93.10
15099;DHT22;33900;53.640;9.942;2023-04-01T12:18:16;10.90;93.50
15099;DHT22;33900;53.640;9.942;2023-04-01T12:21:09;10.90;93.20
15099;DHT22;33900;53.640;9.942;2023-04-01T12:25:58;10.90;93.20
15099;DHT22;33900;53.640;9.942;2023-04-01T12:36:37;10.80;93.10
15099;DHT22;33900;53.640;9.942;2023-04-01T12:39:18;10.80;93.10
15099;DHT22;33900;53.640;9.942;2023-04-01T12:41:51;10.80;93.10
15099;DHT22;33900;53.640;9.942;2023-04-01T12:54:44;10.70;93.00
15099;DHT22;33900;53.640;9.942;2023-04-01T12:59:55;10.70;93.00
15099;DHT22;33900;53.640;9.942;2023-04-01T13:07:40;10.60;93.00
15099;DHT22;33900;53.640;9.942;2023-04-01T13:15:30;10.60;93.00
15099;DHT22;33900;53.640;9.942;2023-04-01T13:23:22;10.60;93.00
15099;DHT22;33900;53.640;9.942;2023-04-01T13:25:55;10.50;92.90
15099;DHT22;33900;53.640;9.942;2023-04-01T13:28:28;10.60;93.00
15099;DHT22;33900;53.640;9.942;2023-04-01T13:33:24;10.50;92.80
15099;DHT22;33900;53.640;9.942;2023-04-01T13:35:58;10.50;92.90
15099;DHT22;33900;53.640;9.942;2023-04-01T13:46:35;10.40;92.80
15099;DHT22;33900;53.640;9.942;2023-04-01T13:54:26;10.40;92.70
15099;DHT22;33900;53.640;9.942;2023-04-01T13:57:21;10.40;92.80
15099;DHT22;33900;53.640;9.942;2023-04-01T14:23:55;10.30;92.70
15099;DHT22;33900;53.640;9.942;2023-04-01T14:43:25;10.30;92.60
15099;DHT22;33900;53.640;9.942;2023-04-01T14:50:29;10.30;92.80
15099;DHT22;33900;53.640;9.942;2023-04-01T14:52:59;10.30;92.50
15099;DHT22;33900;53.640;9.942;2023-04-01T14:58:13;10.20;92.50
15099;DHT22;33900;53.640;9.942;2023-04-01T15:03:19;10.20;92.60
15099;DHT22;33900;53.640;9.942;2023-04-01T15:06:01;10.20;92.60
15099;DHT22;33900;53.640;9.942;2023-04-01T15:16:19;10.20;92.50
15099;DHT22;33900;53.640;9.942;2023-04-01T15:19:08;10.20;92.50
15099;DHT22;33900;53.640;9.942;2023-04-01T15:24:24;10.10;92.50
15099;DHT22;33900;53.640;9.942;2023-04-01T15:29:29;10.10;92.40
15099;DHT22;33900;53.640;9.942;2023-04-01T15:42:44;10.00;92.30
15099;DHT22;33900;53.640;9.942;2023-04-01T15:47:44;9.90;92.20
15099;DHT22;33900;53.640;9.942;2023-04-01T15:52:59;9.90;92.30
15099;DHT22;33900;53.640;9.942;2023-04-01T15:55:32;9.90;92.30
15099;DHT22;33900;53.640;9.942;2023-04-01T15:58:18;9.90;92.30
15099;DHT22;33900;53.640;9.942;2023-04-01T16:00:53;9.90;92.30
15099;DHT22;33900;53.640;9.942;2023-04-01T16:06:12;9.90;92.30
15099;DHT22;33900;53.640;9.942;2023-04-01T16:22:08;9.80;92.30
15099;DHT22;33900;53.640;9.942;2023-04-01T16:29:33;9.80;92.30
15099;DHT22;33900;53.640;9.942;2023-04-01T16:34:36;9.80;92.20
15099;DHT22;33900;53.640;9.942;2023-04-01T16:37:10;9.80;92.30
15099;DHT22;33900;53.640;9.942;2023-04-01T16:44:50;9.80;92.20
15099;DHT22;33900;53.640;9.942;2023-04-01T16:47:19;9.80;92.20
15099;DHT22;33900;53.640;9.942;2023-04-01T16:49:50;9.80;92.10
15099;DHT22;33900;53.640;9.942;2023-04-01T16:52:29;9.80;92.10
15099;DHT22;33900;53.640;9.942;2023-04-01T16:54:59;9.70;92.10
15099;DHT22;33900;53.640;9.942;2023-04-01T16:57:42;9.70;92.10
15099;DHT22;33900;53.640;9.942;2023-04-01T17:00:27;9.70;92.20
15099;DHT22;33900;53.640;9.942;2023-04-01T17:10:52;9.60;91.90
15099;DHT22;33900;53.640;9.942;2023-04-01T17:20:56;9.50;92.00
15099;DHT22;33900;53.640;9.942;2023-04-01T17:28:49;9.60;92.10
15099;DHT22;33900;53.640;9.942;2023-04-01T17:36:32;9.60;92.10
15099;DHT22;33900;53.640;9.942;2023-04-01T17:39:23;9.60;92.00
15099;DHT22;33900;53.640;9.942;2023-04-01T17:50:19;9.50;91.90
15099;DHT22;33900;53.640;9.942;2023-04-01T17:52:25;9.50;91.90
15099;DHT22;33900;53.640;9.942;2023-04-01T18:00:33;9.40;91.90
15099;DHT22;33900;53.640;9.942;2023-04-01T18:02:48;9.40;91.90
15099;DHT22;33900;53.640;9.942;2023-04-01T18:05:30;9.40;91.90
15099;DHT22;33900;53.640;9.942;2023-04-01T18:08:09;9.40;91.80
15099;DHT22;33900;53.640;9.942;2023-04-01T18:15:45;9.40;91.60
15099;DHT22;33900;53.640;9.942;2023-04-01T18:21:05;9.30;91.80
15099;DHT22;33900;53.640;9.942;2023-04-01T18:28:57;9.30;91.60
15099;DHT22;33900;53.640;9.942;2023-04-01T18:31:26;9.30;91.30
15099;DHT22;33900;53.640;9.942;2023-04-01T18:34:13;9.20;91.40
15099;DHT22;33900;53.640;9.942;2023-04-01T18:36:44;9.20;91.40
15099;DHT22;33900;53.640;9.942;2023-04-01T18:39:16;9.20;91.30
15099;DHT22;33900;53.640;9.942;2023-04-01T18:47:00;9.20;91.40
15099;DHT22;33900;53.640;9.942;2023-04-01T18:49:43;9.10;91.30
15099;DHT22;33900;53.640;9.942;2023-04-01T18:52:20;9.10;91.40
15099;DHT22;33900;53.640;9.942;2023-04-01T18:57:23;9.00;91.40
15099;DHT22;33900;53.640;9.942;2023-04-01T19:00:03;9.00;91.30
15099;DHT22;33900;53.640;9.942;2023-04-01T19:02:38;9.00;91.30
15099;DHT22;33900;53.640;9.942;2023-04-01T19:05:23;9.00;91.30
15099;DHT22;33900;53.640;9.942;2023-04-01T19:07:53;9.00;91.10
15099;DHT22;33900;53.640;9.942;2023-04-01T19:20:44;8.90;91.10
15099;DHT22;33900;53.640;9.942;2023-04-01T19:28:22;8.90;91.10
15099;DHT22;33900;53.640;9.942;2023-04-01T19:31:09;8.80;91.00
15099;DHT22;33900;53.640;9.942;2023-04-01T19:43:49;8.70;91.40
15099;DHT22;33900;53.640;9.942;2023-04-01T19:51:37;8.70;90.80
15099;DHT22;33900;53.640;9.942;2023-04-01T19:56:39;8.70;91.00
15099;DHT22;33900;53.640;9.942;2023-04-01T20:14:50;8.60;90.50
15099;DHT22;33900;53.640;9.942;2023-04-01T20:17:21;8.60;90.40
15099;DHT22;33900;53.640;9.942;2023-04-01T20:20:00;8.50;90.20
15099;DHT22;33900;53.640;9.942;2023-04-01T20:22:33;8.50;90.10
15099;DHT22;33900;53.640;9.942;2023-04-01T20:25:05;8.40;89.90
15099;DHT22;33900;53.640;9.942;2023-04-01T20:27:33;8.40;90.10
15099;DHT22;33900;53.640;9.942;2023-04-01T20:32:54;8.30;90.20
15099;DHT22;33900;53.640;9.942;2023-04-01T20:35:30;8.30;90.10
15099;DHT22;33900;53.640;9.942;2023-04-01T20:43:22;8.20;90.50
15099;DHT22;33900;53.640;9.942;2023-04-01T20:53:32;8.10;90.10
15099;DHT22;33900;53.640;9.942;2023-04-01T21:04:39;8.00;90.30
15099;DHT22;33900;53.640;9.942;2023-04-01T21:07:31;7.90;90.20
15099;DHT22;33900;53.640;9.942;2023-04-01T21:12:56;7.80;90.10
15099;DHT22;33900;53.640;9.942;2023-04-01T21:26:12;7.70;90.20
15099;DHT22;33900;53.640;9.942;2023-04-01T21:39:02;7.50;89.60
15099;DHT22;33900;53.640;9.942;2023-04-01T21:54:31;7.50;90.00
15099;DHT22;33900;53.640;9.942;2023-04-01T22:07:17;7.40;89.40
15099;DHT22;33900;53.640;9.942;2023-04-01T22:15:05;7.40;89.30
15099;DHT22;33900;53.640;9.942;2023-04-01T22:17:52;7.40;89.20
15099;DHT22;33900;53.640;9.942;2023-04-01T22:20:25;7.40;89.10
15099;DHT22;33900;53.640;9.942;2023-04-01T22:23:18;7.40;88.60
15099;DHT22;33900;53.640;9.942;2023-04-01T22:25:56;7.40;88.60
15099;DHT22;33900;53.640;9.942;2023-04-01T22:30:59;7.40;88.80
15099;DHT22;33900;53.640;9.942;2023-04-01T22:39:06;7.50;87.80
15099;DHT22;33900;53.640;9.942;2023-04-01T22:41:55;7.40;87.90
15099;DHT22;33900;53.640;9.942;2023-04-01T22:46:53;7.50;87.60
15099;DHT22;33900;53.640;9.942;2023-04-01T22:49:32;7.40;87.50
15099;DHT22;33900;53.640;9.942;2023-04-01T22:52:14;7.50;88.40
15099;DHT22;33900;53.640;9.942;2023-04-01T22:54:45;7.50;88.10
15099;DHT22;33900;53.640;9.942;2023-04-01T22:57:14;7.50;88.20
15099;DHT22;33900;53.640;9.942;2023-04-01T23:02:27;7.60;88.50
15099;DHT22;33900;53.640;9.942;2023-04-01T23:04:55;7.60;87.70
15099;DHT22;33900;53.640;9.942;2023-04-01T23:10:14;7.60;87.50
15099;DHT22;33900;53.640;9.942;2023-04-01T23:12:41;7.60;87.10
15099;DHT22;33900;53.640;9.942;2023-04-01T23:15:10;7.60;87.90
15099;DHT22;33900;53.640;9.942;2023-04-01T23:17:46;7.60;87.70
15099;DHT22;33900;53.640;9.942;2023-04-01T23:20:24;7.60;88.10
15099;DHT22;33900;53.640;9.942;2023-04-01T23:22:59;7.50;88.20
15099;DHT22;33900;53.640;9.942;2023-04-01T23:38:14;7.40;87.70
15099;DHT22;33900;53.640;9.942;2023-04-01T23:40:40;7.30;87.80
15099;DHT22;33900;53.640;9.942;2023-04-01T23:43:22;7.30;88.20
15099;DHT22;33900;53.640;9.942;2023-04-01T23:45:50;7.30;88.30
15099;DHT22;33900;53.640;9.942;2023-04-01T23:48:15;7.30;88.50
15099;DHT22;33900;53.640;9.942;2023-04-01T23:50:42;7.20;88.10
15099;DHT22;33900;53.640;9.942;2023-04-01T23:53:17;7.20;87.80
15099;DHT22;33900;53.640;9.942;2023-04-01T23:55:44;7.20;87.60
15099;DHT22;33900;53.640;9.942;2023-04-01T23:58:17;7.20;87.80
